sensor_id;sensor_type;location;lat;lon;timestamp;P1;durP1;ratioP1;P2;durP2;ratioP2
61015;SDS011;46902;52.920;6.536;2024-01-11T00:01:32;38.75;;;25.67;;
61015;SDS011;46902;52.920;6.536;2024-01-11T00:03:58;38.30;;;24.98;;
61015;SDS011;46902;52.920;6.536;2024-01-11T00:06:24;36.38;;;24.35;;
61015;SDS011;46902;52.920;6.536;2024-01-11T00:08:50;35.40;;;24.17;;
61015;SDS011;46902;52.920;6.536;2024-01-11T00:11:16;36.75;;;25.23;;
61015;SDS011;46902;52.920;6.536;2024-01-11T00:13:42;39.13;;;26.05;;
61015;SDS011;46902;52.920;6.536;2024-01-11T00:16:08;40.25;;;25.20;;
61015;SDS011;46902;52.920;6.536;2024-01-11T00:18:34;37.05;;;24.70;;
61015;SDS011;46902;52.920;6.536;2024-01-11T00:21:00;38.00;;;25.27;;
61015;SDS011;46902;52.920;6.536;2024-01-11T00:23:26;36.05;;;23.63;;
61015;SDS011;46902;52.920;6.536;2024-01-11T00:25:52;36.47;;;25.25;;
61015;SDS011;46902;52.920;6.536;2024-01-11T00:28:18;39.35;;;26.70;;
61015;SDS011;46902;52.920;6.536;2024-01-11T00:30:44;37.55;;;25.52;;
61015;SDS011;46902;52.920;6.536;2024-01-11T00:33:10;37.97;;;25.58;;
61015;SDS011;46902;52.920;6.536;2024-01-11T00:35:36;37.80;;;25.27;;
61015;SDS011;46902;52.920;6.536;2024-01-11T00:38:02;41.53;;;26.55;;
61015;SDS011;46902;52.920;6.536;2024-01-11T00:40:28;39.67;;;25.73;;
61015;SDS011;46902;52.920;6.536;2024-01-11T00:42:54;38.63;;;24.55;;
61015;SDS011;46902;52.920;6.536;2024-01-11T00:45:20;39.42;;;25.38;;
61015;SDS011;46902;52.920;6.536;2024-01-11T00:47:46;40.33;;;25.23;;
61015;SDS011;46902;52.920;6.536;2024-01-11T00:50:12;36.72;;;25.20;;
61015;SDS011;46902;52.920;6.536;2024-01-11T00:52:38;41.78;;;26.27;;
61015;SDS011;46902;52.920;6.536;2024-01-11T00:55:04;42.38;;;27.42;;
61015;SDS011;46902;52.920;6.536;2024-01-11T00:57:30;41.25;;;25.92;;
61015;SDS011;46902;52.920;6.536;2024-01-11T00:59:56;40.03;;;25.80;;
61015;SDS011;46902;52.920;6.536;2024-01-11T01:02:22;40.25;;;26.10;;
61015;SDS011;46902;52.920;6.536;2024-01-11T01:04:48;40.63;;;27.45;;
61015;SDS011;46902;52.920;6.536;2024-01-11T01:07:14;37.85;;;24.65;;
61015;SDS011;46902;52.920;6.536;2024-01-11T01:09:40;37.83;;;24.88;;
61015;SDS011;46902;52.920;6.536;2024-01-11T01:12:06;43.33;;;26.92;;
61015;SDS011;46902;52.920;6.536;2024-01-11T01:14:32;41.50;;;26.27;;
61015;SDS011;46902;52.920;6.536;2024-01-11T01:16:58;41.60;;;26.85;;
61015;SDS011;46902;52.920;6.536;2024-01-11T01:19:24;41.80;;;26.65;;
61015;SDS011;46902;52.920;6.536;2024-01-11T01:21:50;40.67;;;26.15;;
61015;SDS011;46902;52.920;6.536;2024-01-11T01:24:16;39.97;;;26.67;;
61015;SDS011;46902;52.920;6.536;2024-01-11T01:26:42;41.67;;;26.70;;
61015;SDS011;46902;52.920;6.536;2024-01-11T01:29:08;42.92;;;26.70;;
61015;SDS011;46902;52.920;6.536;2024-01-11T01:31:34;39.40;;;25.50;;
61015;SDS011;46902;52.920;6.536;2024-01-11T01:34:03;41.13;;;26.63;;
61015;SDS011;46902;52.920;6.536;2024-01-11T01:36:29;40.78;;;26.77;;
61015;SDS011;46902;52.920;6.536;2024-01-11T01:38:55;41.75;;;26.85;;
61015;SDS011;46902;52.920;6.536;2024-01-11T01:41:21;42.60;;;27.05;;
61015;SDS011;46902;52.920;6.536;2024-01-11T01:43:47;47.70;;;27.50;;
61015;SDS011;46902;52.920;6.536;2024-01-11T01:46:14;41.13;;;26.48;;
61015;SDS011;46902;52.920;6.536;2024-01-11T01:48:45;39.72;;;25.95;;
61015;SDS011;46902;52.920;6.536;2024-01-11T01:51:11;42.10;;;26.70;;
61015;SDS011;46902;52.920;6.536;2024-01-11T01:53:37;37.08;;;25.17;;
61015;SDS011;46902;52.920;6.536;2024-01-11T01:56:03;42.08;;;26.05;;
61015;SDS011;46902;52.920;6.536;2024-01-11T01:58:30;42.42;;;26.02;;
61015;SDS011;46902;52.920;6.536;2024-01-11T02:00:56;40.47;;;26.35;;
61015;SDS011;46902;52.920;6.536;2024-01-11T02:03:23;42.65;;;26.70;;
61015;SDS011;46902;52.920;6.536;2024-01-11T02:05:49;41.08;;;26.17;;
61015;SDS011;46902;52.920;6.536;2024-01-11T02:08:16;40.13;;;26.55;;
61015;SDS011;46902;52.920;6.536;2024-01-11T02:10:45;40.90;;;26.08;;
61015;SDS011;46902;52.920;6.536;2024-01-11T02:13:11;43.63;;;26.63;;
61015;SDS011;46902;52.920;6.536;2024-01-11T02:15:38;42.17;;;27.23;;
61015;SDS011;46902;52.920;6.536;2024-01-11T02:18:04;41.78;;;26.90;;
61015;SDS011;46902;52.920;6.536;2024-01-11T02:20:30;42.28;;;27.33;;
61015;SDS011;46902;52.920;6.536;2024-01-11T02:22:59;37.72;;;25.10;;
61015;SDS011;46902;52.920;6.536;2024-01-11T02:25:27;42.58;;;26.75;;
61015;SDS011;46902;52.920;6.536;2024-01-11T02:27:53;45.22;;;27.30;;
61015;SDS011;46902;52.920;6.536;2024-01-11T02:30:19;44.67;;;28.17;;
61015;SDS011;46902;52.920;6.536;2024-01-11T02:32:48;44.28;;;26.35;;
61015;SDS011;46902;52.920;6.536;2024-01-11T02:35:14;40.97;;;25.83;;
61015;SDS011;46902;52.920;6.536;2024-01-11T02:37:41;42.67;;;27.05;;
61015;SDS011;46902;52.920;6.536;2024-01-11T02:40:07;42.58;;;27.60;;
61015;SDS011;46902;52.920;6.536;2024-01-11T02:42:36;45.15;;;26.75;;
61015;SDS011;46902;52.920;6.536;2024-01-11T02:45:03;46.58;;;28.17;;
61015;SDS011;46902;52.920;6.536;2024-01-11T02:47:29;40.15;;;26.70;;
61015;SDS011;46902;52.920;6.536;2024-01-11T02:49:55;42.83;;;26.63;;
61015;SDS011;46902;52.920;6.536;2024-01-11T02:52:22;41.33;;;26.92;;
61015;SDS011;46902;52.920;6.536;2024-01-11T02:54:48;43.83;;;28.23;;
61015;SDS011;46902;52.920;6.536;2024-01-11T02:57:14;39.25;;;25.75;;
61015;SDS011;46902;52.920;6.536;2024-01-11T02:59:41;45.53;;;27.77;;
61015;SDS011;46902;52.920;6.536;2024-01-11T03:02:07;42.05;;;27.45;;
61015;SDS011;46902;52.920;6.536;2024-01-11T03:04:32;44.03;;;26.98;;
61015;SDS011;46902;52.920;6.536;2024-01-11T03:06:58;42.95;;;28.20;;
61015;SDS011;46902;52.920;6.536;2024-01-11T03:09:24;44.22;;;28.15;;
61015;SDS011;46902;52.920;6.536;2024-01-11T03:11:50;45.47;;;28.77;;
61015;SDS011;46902;52.920;6.536;2024-01-11T03:14:17;45.05;;;28.30;;
61015;SDS011;46902;52.920;6.536;2024-01-11T03:16:43;43.28;;;28.88;;
61015;SDS011;46902;52.920;6.536;2024-01-11T03:19:09;43.85;;;27.60;;
61015;SDS011;46902;52.920;6.536;2024-01-11T03:21:35;43.53;;;28.42;;
61015;SDS011;46902;52.920;6.536;2024-01-11T03:24:01;43.83;;;28.42;;
61015;SDS011;46902;52.920;6.536;2024-01-11T03:26:27;44.78;;;28.35;;
61015;SDS011;46902;52.920;6.536;2024-01-11T03:28:53;43.40;;;28.13;;
61015;SDS011;46902;52.920;6.536;2024-01-11T03:31:19;46.03;;;28.30;;
61015;SDS011;46902;52.920;6.536;2024-01-11T03:33:44;41.88;;;26.48;;
61015;SDS011;46902;52.920;6.536;2024-01-11T03:36:11;42.85;;;27.52;;
61015;SDS011;46902;52.920;6.536;2024-01-11T03:38:37;45.15;;;28.05;;
61015;SDS011;46902;52.920;6.536;2024-01-11T03:41:07;43.05;;;27.38;;
61015;SDS011;46902;52.920;6.536;2024-01-11T03:43:33;45.30;;;28.65;;
61015;SDS011;46902;52.920;6.536;2024-01-11T03:45:59;48.08;;;28.83;;
61015;SDS011;46902;52.920;6.536;2024-01-11T03:48:25;47.38;;;29.73;;
61015;SDS011;46902;52.920;6.536;2024-01-11T03:50:51;45.80;;;29.70;;
61015;SDS011;46902;52.920;6.536;2024-01-11T03:53:17;46.50;;;29.05;;
61015;SDS011;46902;52.920;6.536;2024-01-11T03:55:43;44.22;;;28.38;;
61015;SDS011;46902;52.920;6.536;2024-01-11T03:58:09;45.92;;;29.05;;
61015;SDS011;46902;52.920;6.536;2024-01-11T04:00:35;49.65;;;28.70;;
61015;SDS011;46902;52.920;6.536;2024-01-11T04:03:01;44.97;;;29.15;;
61015;SDS011;46902;52.920;6.536;2024-01-11T04:05:27;49.42;;;28.35;;
61015;SDS011;46902;52.920;6.536;2024-01-11T04:07:53;45.03;;;28.52;;
61015;SDS011;46902;52.920;6.536;2024-01-11T04:10:19;42.72;;;26.98;;
61015;SDS011;46902;52.920;6.536;2024-01-11T04:12:45;44.22;;;26.75;;
61015;SDS011;46902;52.920;6.536;2024-01-11T04:15:11;43.30;;;27.65;;
61015;SDS011;46902;52.920;6.536;2024-01-11T04:17:38;44.72;;;27.60;;
61015;SDS011;46902;52.920;6.536;2024-01-11T04:20:06;43.05;;;27.63;;
61015;SDS011;46902;52.920;6.536;2024-01-11T04:22:33;45.75;;;28.35;;
61015;SDS011;46902;52.920;6.536;2024-01-11T04:24:59;42.00;;;27.92;;
61015;SDS011;46902;52.920;6.536;2024-01-11T04:27:25;45.22;;;27.77;;
61015;SDS011;46902;52.920;6.536;2024-01-11T04:29:51;47.88;;;28.17;;
61015;SDS011;46902;52.920;6.536;2024-01-11T04:32:17;47.10;;;27.83;;
61015;SDS011;46902;52.920;6.536;2024-01-11T04:34:44;44.17;;;28.02;;
61015;SDS011;46902;52.920;6.536;2024-01-11T04:37:10;44.88;;;28.02;;
61015;SDS011;46902;52.920;6.536;2024-01-11T04:39:36;47.05;;;29.42;;
61015;SDS011;46902;52.920;6.536;2024-01-11T04:42:02;44.33;;;28.52;;
61015;SDS011;46902;52.920;6.536;2024-01-11T04:44:28;47.30;;;29.58;;
61015;SDS011;46902;52.920;6.536;2024-01-11T04:46:54;43.28;;;27.15;;
61015;SDS011;46902;52.920;6.536;2024-01-11T04:49:20;47.03;;;27.75;;
61015;SDS011;46902;52.920;6.536;2024-01-11T04:51:46;44.83;;;28.40;;
61015;SDS011;46902;52.920;6.536;2024-01-11T04:54:12;45.83;;;29.30;;
61015;SDS011;46902;52.920;6.536;2024-01-11T04:56:38;48.72;;;29.63;;
61015;SDS011;46902;52.920;6.536;2024-01-11T04:59:04;47.03;;;28.63;;
61015;SDS011;46902;52.920;6.536;2024-01-11T05:01:30;46.42;;;29.23;;
61015;SDS011;46902;52.920;6.536;2024-01-11T05:03:56;48.28;;;28.75;;
61015;SDS011;46902;52.920;6.536;2024-01-11T05:06:22;45.97;;;28.55;;
61015;SDS011;46902;52.920;6.536;2024-01-11T05:08:50;46.30;;;28.73;;
61015;SDS011;46902;52.920;6.536;2024-01-11T05:11:17;46.50;;;28.25;;
61015;SDS011;46902;52.920;6.536;2024-01-11T05:13:43;43.58;;;28.50;;
61015;SDS011;46902;52.920;6.536;2024-01-11T05:16:25;47.80;;;29.02;;
61015;SDS011;46902;52.920;6.536;2024-01-11T05:18:51;47.20;;;29.88;;
61015;SDS011;46902;52.920;6.536;2024-01-11T05:21:18;49.92;;;30.60;;
61015;SDS011;46902;52.920;6.536;2024-01-11T05:23:44;49.90;;;30.20;;
61015;SDS011;46902;52.920;6.536;2024-01-11T05:26:10;48.38;;;29.88;;
61015;SDS011;46902;52.920;6.536;2024-01-11T05:28:36;50.58;;;30.80;;
61015;SDS011;46902;52.920;6.536;2024-01-11T05:31:05;47.20;;;29.13;;
61015;SDS011;46902;52.920;6.536;2024-01-11T05:33:31;49.67;;;30.60;;
61015;SDS011;46902;52.920;6.536;2024-01-11T05:35:57;49.58;;;29.95;;
61015;SDS011;46902;52.920;6.536;2024-01-11T05:38:23;52.50;;;32.65;;
61015;SDS011;46902;52.920;6.536;2024-01-11T05:40:49;49.53;;;30.27;;
61015;SDS011;46902;52.920;6.536;2024-01-11T05:43:15;48.25;;;31.20;;
61015;SDS011;46902;52.920;6.536;2024-01-11T05:45:41;48.10;;;30.70;;
61015;SDS011;46902;52.920;6.536;2024-01-11T05:48:07;48.38;;;29.90;;
61015;SDS011;46902;52.920;6.536;2024-01-11T05:50:33;51.40;;;31.60;;
61015;SDS011;46902;52.920;6.536;2024-01-11T05:52:59;49.72;;;31.20;;
61015;SDS011;46902;52.920;6.536;2024-01-11T05:55:25;49.40;;;30.75;;
61015;SDS011;46902;52.920;6.536;2024-01-11T05:57:51;51.63;;;31.00;;
61015;SDS011;46902;52.920;6.536;2024-01-11T06:00:17;49.05;;;30.10;;
61015;SDS011;46902;52.920;6.536;2024-01-11T06:02:43;50.33;;;30.10;;
61015;SDS011;46902;52.920;6.536;2024-01-11T06:05:09;57.55;;;33.72;;
61015;SDS011;46902;52.920;6.536;2024-01-11T06:07:37;52.60;;;32.47;;
61015;SDS011;46902;52.920;6.536;2024-01-11T06:10:04;51.63;;;31.45;;
61015;SDS011;46902;52.920;6.536;2024-01-11T06:12:31;48.90;;;30.75;;
61015;SDS011;46902;52.920;6.536;2024-01-11T06:14:57;47.80;;;30.98;;
61015;SDS011;46902;52.920;6.536;2024-01-11T06:17:23;53.63;;;32.30;;
61015;SDS011;46902;52.920;6.536;2024-01-11T06:19:49;49.70;;;30.65;;
61015;SDS011;46902;52.920;6.536;2024-01-11T06:22:15;50.03;;;31.83;;
61015;SDS011;46902;52.920;6.536;2024-01-11T06:24:41;51.00;;;30.98;;
61015;SDS011;46902;52.920;6.536;2024-01-11T06:27:07;48.90;;;30.50;;
61015;SDS011;46902;52.920;6.536;2024-01-11T06:29:33;50.28;;;30.67;;
61015;SDS011;46902;52.920;6.536;2024-01-11T06:31:59;50.50;;;30.30;;
61015;SDS011;46902;52.920;6.536;2024-01-11T06:34:25;44.72;;;29.38;;
61015;SDS011;46902;52.920;6.536;2024-01-11T06:36:51;50.17;;;29.92;;
61015;SDS011;46902;52.920;6.536;2024-01-11T06:39:17;48.15;;;30.42;;
61015;SDS011;46902;52.920;6.536;2024-01-11T06:41:43;47.92;;;29.42;;
61015;SDS011;46902;52.920;6.536;2024-01-11T06:44:09;50.00;;;30.88;;
61015;SDS011;46902;52.920;6.536;2024-01-11T06:46:35;46.22;;;29.85;;
61015;SDS011;46902;52.920;6.536;2024-01-11T06:49:04;46.83;;;30.02;;
61015;SDS011;46902;52.920;6.536;2024-01-11T06:51:30;47.78;;;29.63;;
61015;SDS011;46902;52.920;6.536;2024-01-11T06:53:56;47.33;;;29.88;;
61015;SDS011;46902;52.920;6.536;2024-01-11T06:56:25;46.88;;;28.77;;
61015;SDS011;46902;52.920;6.536;2024-01-11T06:58:51;48.78;;;30.35;;
61015;SDS011;46902;52.920;6.536;2024-01-11T07:01:17;45.83;;;29.35;;
61015;SDS011;46902;52.920;6.536;2024-01-11T07:03:43;53.92;;;31.13;;
61015;SDS011;46902;52.920;6.536;2024-01-11T07:06:09;46.90;;;30.75;;
61015;SDS011;46902;52.920;6.536;2024-01-11T07:08:36;50.13;;;30.73;;
61015;SDS011;46902;52.920;6.536;2024-01-11T07:11:02;50.70;;;31.90;;
61015;SDS011;46902;52.920;6.536;2024-01-11T07:13:31;53.58;;;32.17;;
61015;SDS011;46902;52.920;6.536;2024-01-11T07:15:57;49.67;;;30.05;;
61015;SDS011;46902;52.920;6.536;2024-01-11T07:18:24;46.67;;;29.85;;
61015;SDS011;46902;52.920;6.536;2024-01-11T07:20:50;50.72;;;33.22;;
61015;SDS011;46902;52.920;6.536;2024-01-11T07:23:16;49.95;;;30.73;;
61015;SDS011;46902;52.920;6.536;2024-01-11T07:25:42;51.38;;;30.33;;
61015;SDS011;46902;52.920;6.536;2024-01-11T07:28:09;51.55;;;30.92;;
61015;SDS011;46902;52.920;6.536;2024-01-11T07:30:35;45.50;;;29.80;;
61015;SDS011;46902;52.920;6.536;2024-01-11T07:33:01;49.03;;;30.65;;
61015;SDS011;46902;52.920;6.536;2024-01-11T07:35:27;51.85;;;29.85;;
61015;SDS011;46902;52.920;6.536;2024-01-11T07:37:53;48.10;;;31.33;;
61015;SDS011;46902;52.920;6.536;2024-01-11T07:40:19;48.22;;;30.60;;
61015;SDS011;46902;52.920;6.536;2024-01-11T07:42:45;47.30;;;30.42;;
61015;SDS011;46902;52.920;6.536;2024-01-11T07:45:11;49.63;;;29.63;;
61015;SDS011;46902;52.920;6.536;2024-01-11T07:47:37;49.75;;;30.80;;
61015;SDS011;46902;52.920;6.536;2024-01-11T07:50:04;50.45;;;31.42;;
61015;SDS011;46902;52.920;6.536;2024-01-11T07:52:31;49.17;;;31.20;;
61015;SDS011;46902;52.920;6.536;2024-01-11T07:54:57;49.75;;;31.30;;
61015;SDS011;46902;52.920;6.536;2024-01-11T07:57:31;48.13;;;31.33;;
61015;SDS011;46902;52.920;6.536;2024-01-11T07:59:57;47.80;;;30.83;;
61015;SDS011;46902;52.920;6.536;2024-01-11T08:02:24;49.33;;;31.27;;
61015;SDS011;46902;52.920;6.536;2024-01-11T08:04:50;47.38;;;30.30;;
61015;SDS011;46902;52.920;6.536;2024-01-11T08:07:16;49.50;;;30.88;;
61015;SDS011;46902;52.920;6.536;2024-01-11T08:09:42;48.97;;;29.55;;
61015;SDS011;46902;52.920;6.536;2024-01-11T08:12:16;46.03;;;29.70;;
61015;SDS011;46902;52.920;6.536;2024-01-11T08:14:42;46.40;;;30.83;;
61015;SDS011;46902;52.920;6.536;2024-01-11T08:17:08;49.17;;;30.55;;
61015;SDS011;46902;52.920;6.536;2024-01-11T08:19:35;46.50;;;30.45;;
61015;SDS011;46902;52.920;6.536;2024-01-11T08:22:01;49.83;;;30.65;;
61015;SDS011;46902;52.920;6.536;2024-01-11T08:24:27;52.38;;;31.70;;
61015;SDS011;46902;52.920;6.536;2024-01-11T08:26:53;50.60;;;31.73;;
61015;SDS011;46902;52.920;6.536;2024-01-11T08:29:20;44.75;;;29.80;;
61015;SDS011;46902;52.920;6.536;2024-01-11T08:31:47;45.65;;;30.00;;
61015;SDS011;46902;52.920;6.536;2024-01-11T08:34:13;52.95;;;32.33;;
61015;SDS011;46902;52.920;6.536;2024-01-11T08:36:39;49.03;;;30.98;;
61015;SDS011;46902;52.920;6.536;2024-01-11T08:39:05;49.70;;;30.67;;
61015;SDS011;46902;52.920;6.536;2024-01-11T08:41:31;46.17;;;29.60;;
61015;SDS011;46902;52.920;6.536;2024-01-11T08:43:58;51.85;;;31.52;;
61015;SDS011;46902;52.920;6.536;2024-01-11T08:46:27;50.47;;;31.63;;
61015;SDS011;46902;52.920;6.536;2024-01-11T08:48:56;50.25;;;31.80;;
61015;SDS011;46902;52.920;6.536;2024-01-11T08:51:22;50.30;;;30.42;;
61015;SDS011;46902;52.920;6.536;2024-01-11T08:53:48;52.13;;;31.92;;
61015;SDS011;46902;52.920;6.536;2024-01-11T08:56:14;49.05;;;31.77;;
61015;SDS011;46902;52.920;6.536;2024-01-11T08:58:41;49.30;;;30.63;;
61015;SDS011;46902;52.920;6.536;2024-01-11T09:01:08;50.58;;;33.00;;
61015;SDS011;46902;52.920;6.536;2024-01-11T09:03:34;52.15;;;31.80;;
61015;SDS011;46902;52.920;6.536;2024-01-11T09:06:03;53.80;;;32.65;;
61015;SDS011;46902;52.920;6.536;2024-01-11T09:08:29;53.60;;;33.63;;
61015;SDS011;46902;52.920;6.536;2024-01-11T09:10:55;48.17;;;30.92;;
61015;SDS011;46902;52.920;6.536;2024-01-11T09:13:23;52.00;;;33.13;;
61015;SDS011;46902;52.920;6.536;2024-01-11T09:15:51;49.78;;;32.92;;
61015;SDS011;46902;52.920;6.536;2024-01-11T09:18:17;52.28;;;31.48;;
61015;SDS011;46902;52.920;6.536;2024-01-11T09:20:43;50.53;;;31.38;;
61015;SDS011;46902;52.920;6.536;2024-01-11T09:23:09;48.28;;;30.60;;
61015;SDS011;46902;52.920;6.536;2024-01-11T09:25:35;48.78;;;31.27;;
61015;SDS011;46902;52.920;6.536;2024-01-11T09:28:01;46.65;;;30.65;;
61015;SDS011;46902;52.920;6.536;2024-01-11T09:30:27;53.05;;;32.47;;
61015;SDS011;46902;52.920;6.536;2024-01-11T09:32:53;55.70;;;31.15;;
61015;SDS011;46902;52.920;6.536;2024-01-11T09:35:19;51.80;;;31.58;;
61015;SDS011;46902;52.920;6.536;2024-01-11T09:37:45;50.47;;;31.40;;
61015;SDS011;46902;52.920;6.536;2024-01-11T09:40:12;51.13;;;32.17;;
61015;SDS011;46902;52.920;6.536;2024-01-11T09:42:38;57.53;;;34.85;;
61015;SDS011;46902;52.920;6.536;2024-01-11T09:45:07;53.90;;;32.88;;
61015;SDS011;46902;52.920;6.536;2024-01-11T09:47:34;57.58;;;33.95;;
61015;SDS011;46902;52.920;6.536;2024-01-11T09:50:02;51.45;;;32.30;;
61015;SDS011;46902;52.920;6.536;2024-01-11T09:52:28;53.05;;;31.73;;
61015;SDS011;46902;52.920;6.536;2024-01-11T09:54:57;58.78;;;31.75;;
61015;SDS011;46902;52.920;6.536;2024-01-11T09:57:28;54.55;;;33.10;;
61015;SDS011;46902;52.920;6.536;2024-01-11T09:59:55;49.17;;;31.17;;
61015;SDS011;46902;52.920;6.536;2024-01-11T10:02:21;50.55;;;32.05;;
61015;SDS011;46902;52.920;6.536;2024-01-11T10:04:49;49.78;;;31.75;;
61015;SDS011;46902;52.920;6.536;2024-01-11T10:07:17;50.67;;;33.60;;
61015;SDS011;46902;52.920;6.536;2024-01-11T10:09:45;49.90;;;31.05;;
61015;SDS011;46902;52.920;6.536;2024-01-11T10:12:11;57.85;;;32.70;;
61015;SDS011;46902;52.920;6.536;2024-01-11T10:14:37;52.58;;;31.70;;
61015;SDS011;46902;52.920;6.536;2024-01-11T10:17:03;51.58;;;32.03;;
61015;SDS011;46902;52.920;6.536;2024-01-11T10:19:30;52.65;;;31.65;;
61015;SDS011;46902;52.920;6.536;2024-01-11T10:21:56;46.50;;;30.10;;
61015;SDS011;46902;52.920;6.536;2024-01-11T10:24:23;48.95;;;31.25;;
61015;SDS011;46902;52.920;6.536;2024-01-11T10:26:57;49.25;;;30.50;;
61015;SDS011;46902;52.920;6.536;2024-01-11T10:29:35;48.58;;;30.23;;
61015;SDS011;46902;52.920;6.536;2024-01-11T10:32:02;46.47;;;30.52;;
61015;SDS011;46902;52.920;6.536;2024-01-11T10:34:28;53.58;;;30.45;;
61015;SDS011;46902;52.920;6.536;2024-01-11T10:36:54;48.15;;;30.23;;
61015;SDS011;46902;52.920;6.536;2024-01-11T10:39:25;46.13;;;28.38;;
61015;SDS011;46902;52.920;6.536;2024-01-11T10:41:52;51.38;;;30.05;;
61015;SDS011;46902;52.920;6.536;2024-01-11T10:44:19;46.30;;;28.40;;
61015;SDS011;46902;52.920;6.536;2024-01-11T10:46:47;45.38;;;28.98;;
61015;SDS011;46902;52.920;6.536;2024-01-11T10:49:15;46.67;;;29.58;;
61015;SDS011;46902;52.920;6.536;2024-01-11T10:51:49;44.67;;;27.92;;
61015;SDS011;46902;52.920;6.536;2024-01-11T10:54:19;46.08;;;29.20;;
61015;SDS011;46902;52.920;6.536;2024-01-11T10:56:46;42.22;;;28.63;;
61015;SDS011;46902;52.920;6.536;2024-01-11T10:59:12;45.45;;;29.05;;
61015;SDS011;46902;52.920;6.536;2024-01-11T11:01:38;45.90;;;28.63;;
61015;SDS011;46902;52.920;6.536;2024-01-11T11:04:05;44.15;;;28.55;;
61015;SDS011;46902;52.920;6.536;2024-01-11T11:06:34;43.25;;;27.67;;
61015;SDS011;46902;52.920;6.536;2024-01-11T11:09:00;44.47;;;27.60;;
61015;SDS011;46902;52.920;6.536;2024-01-11T11:11:29;43.60;;;28.10;;
61015;SDS011;46902;52.920;6.536;2024-01-11T11:13:58;37.38;;;25.83;;
61015;SDS011;46902;52.920;6.536;2024-01-11T11:16:25;42.05;;;26.92;;
61015;SDS011;46902;52.920;6.536;2024-01-11T11:18:54;43.50;;;28.52;;
61015;SDS011;46902;52.920;6.536;2024-01-11T11:21:20;41.13;;;26.17;;
61015;SDS011;46902;52.920;6.536;2024-01-11T11:23:47;37.40;;;25.73;;
61015;SDS011;46902;52.920;6.536;2024-01-11T11:26:14;42.85;;;27.50;;
61015;SDS011;46902;52.920;6.536;2024-01-11T11:28:41;40.40;;;26.42;;
61015;SDS011;46902;52.920;6.536;2024-01-11T11:31:07;45.28;;;27.70;;
61015;SDS011;46902;52.920;6.536;2024-01-11T11:33:36;45.38;;;28.30;;
61015;SDS011;46902;52.920;6.536;2024-01-11T11:36:02;43.10;;;27.50;;
61015;SDS011;46902;52.920;6.536;2024-01-11T11:38:30;41.63;;;27.65;;
61015;SDS011;46902;52.920;6.536;2024-01-11T11:40:57;41.88;;;27.60;;
61015;SDS011;46902;52.920;6.536;2024-01-11T11:43:24;42.13;;;26.58;;
61015;SDS011;46902;52.920;6.536;2024-01-11T11:45:51;36.80;;;24.92;;
61015;SDS011;46902;52.920;6.536;2024-01-11T11:51:14;43.28;;;27.40;;
61015;SDS011;46902;52.920;6.536;2024-01-11T11:53:41;42.15;;;25.67;;
61015;SDS011;46902;52.920;6.536;2024-01-11T11:56:08;45.78;;;27.38;;
61015;SDS011;46902;52.920;6.536;2024-01-11T11:58:35;40.65;;;26.60;;
61015;SDS011;46902;52.920;6.536;2024-01-11T12:01:02;45.92;;;28.20;;
61015;SDS011;46902;52.920;6.536;2024-01-11T12:03:32;39.72;;;26.38;;
61015;SDS011;46902;52.920;6.536;2024-01-11T12:05:59;43.78;;;28.25;;
61015;SDS011;46902;52.920;6.536;2024-01-11T12:08:25;41.35;;;26.88;;
61015;SDS011;46902;52.920;6.536;2024-01-11T12:10:52;39.63;;;25.67;;
61015;SDS011;46902;52.920;6.536;2024-01-11T12:13:18;40.08;;;26.00;;
61015;SDS011;46902;52.920;6.536;2024-01-11T12:15:45;44.15;;;27.27;;
61015;SDS011;46902;52.920;6.536;2024-01-11T12:18:11;40.28;;;25.67;;
61015;SDS011;46902;52.920;6.536;2024-01-11T12:20:37;41.13;;;26.65;;
61015;SDS011;46902;52.920;6.536;2024-01-11T12:23:03;38.25;;;25.65;;
61015;SDS011;46902;52.920;6.536;2024-01-11T12:25:30;42.13;;;26.10;;
61015;SDS011;46902;52.920;6.536;2024-01-11T12:27:56;40.67;;;26.00;;
61015;SDS011;46902;52.920;6.536;2024-01-11T12:30:22;39.85;;;24.77;;
61015;SDS011;46902;52.920;6.536;2024-01-11T12:32:49;38.17;;;25.45;;
61015;SDS011;46902;52.920;6.536;2024-01-11T12:35:16;38.22;;;24.95;;
61015;SDS011;46902;52.920;6.536;2024-01-11T12:37:54;39.70;;;24.95;;
61015;SDS011;46902;52.920;6.536;2024-01-11T12:40:24;40.92;;;24.70;;
61015;SDS011;46902;52.920;6.536;2024-01-11T12:42:52;45.13;;;27.27;;
61015;SDS011;46902;52.920;6.536;2024-01-11T12:45:18;44.83;;;27.45;;
61015;SDS011;46902;52.920;6.536;2024-01-11T12:47:44;41.28;;;26.08;;
61015;SDS011;46902;52.920;6.536;2024-01-11T12:50:11;45.45;;;27.60;;
61015;SDS011;46902;52.920;6.536;2024-01-11T12:52:37;42.78;;;26.60;;
61015;SDS011;46902;52.920;6.536;2024-01-11T12:55:04;41.05;;;26.67;;
61015;SDS011;46902;52.920;6.536;2024-01-11T12:57:30;47.60;;;27.95;;
61015;SDS011;46902;52.920;6.536;2024-01-11T13:00:08;46.25;;;27.58;;
61015;SDS011;46902;52.920;6.536;2024-01-11T13:02:35;55.38;;;29.67;;
61015;SDS011;46902;52.920;6.536;2024-01-11T13:05:01;51.05;;;28.70;;
61015;SDS011;46902;52.920;6.536;2024-01-11T13:07:28;54.13;;;30.08;;
61015;SDS011;46902;52.920;6.536;2024-01-11T13:09:54;55.50;;;30.25;;
61015;SDS011;46902;52.920;6.536;2024-01-11T13:12:20;51.83;;;29.20;;
61015;SDS011;46902;52.920;6.536;2024-01-11T13:14:46;46.03;;;27.67;;
61015;SDS011;46902;52.920;6.536;2024-01-11T13:17:12;45.80;;;27.45;;
61015;SDS011;46902;52.920;6.536;2024-01-11T13:19:38;54.75;;;30.02;;
61015;SDS011;46902;52.920;6.536;2024-01-11T13:22:04;53.05;;;28.52;;
61015;SDS011;46902;52.920;6.536;2024-01-11T13:24:30;43.72;;;27.35;;
61015;SDS011;46902;52.920;6.536;2024-01-11T13:26:56;52.67;;;29.52;;
61015;SDS011;46902;52.920;6.536;2024-01-11T13:29:22;47.72;;;27.70;;
61015;SDS011;46902;52.920;6.536;2024-01-11T13:31:48;49.58;;;28.63;;
61015;SDS011;46902;52.920;6.536;2024-01-11T13:34:15;61.80;;;30.30;;
61015;SDS011;46902;52.920;6.536;2024-01-11T13:36:40;54.70;;;29.80;;
61015;SDS011;46902;52.920;6.536;2024-01-11T13:39:06;50.78;;;28.27;;
61015;SDS011;46902;52.920;6.536;2024-01-11T13:41:34;55.40;;;29.92;;
61015;SDS011;46902;52.920;6.536;2024-01-11T13:44:00;58.67;;;31.67;;
61015;SDS011;46902;52.920;6.536;2024-01-11T13:46:25;56.40;;;30.83;;
61015;SDS011;46902;52.920;6.536;2024-01-11T13:48:51;59.60;;;31.70;;
61015;SDS011;46902;52.920;6.536;2024-01-11T13:51:18;52.45;;;30.10;;
61015;SDS011;46902;52.920;6.536;2024-01-11T13:53:44;56.45;;;30.70;;
61015;SDS011;46902;52.920;6.536;2024-01-11T13:56:11;57.88;;;30.83;;
61015;SDS011;46902;52.920;6.536;2024-01-11T13:58:37;61.17;;;31.58;;
61015;SDS011;46902;52.920;6.536;2024-01-11T14:01:04;52.30;;;29.58;;
61015;SDS011;46902;52.920;6.536;2024-01-11T14:03:30;49.33;;;29.58;;
61015;SDS011;46902;52.920;6.536;2024-01-11T14:05:56;57.97;;;30.73;;
61015;SDS011;46902;52.920;6.536;2024-01-11T14:08:22;54.78;;;30.08;;
61015;SDS011;46902;52.920;6.536;2024-01-11T14:10:48;53.53;;;30.33;;
61015;SDS011;46902;52.920;6.536;2024-01-11T14:13:14;55.22;;;30.58;;
61015;SDS011;46902;52.920;6.536;2024-01-11T14:15:40;55.45;;;30.83;;
61015;SDS011;46902;52.920;6.536;2024-01-11T14:18:07;57.55;;;30.33;;
61015;SDS011;46902;52.920;6.536;2024-01-11T14:20:34;55.22;;;31.25;;